createdAt,value
2024-03-02T00:01:38.002Z,7.40
2024-03-02T00:04:07.936Z,7.60
2024-03-02T00:06:35.851Z,7.30
2024-03-02T00:09:03.678Z,6.63
2024-03-02T00:11:30.782Z,7.83
2024-03-02T00:13:57.983Z,7.40
2024-03-02T00:16:25.602Z,7.30
2024-03-02T00:18:52.699Z,7.17
2024-03-02T00:21:23.524Z,7.80
2024-03-02T00:23:53.505Z,6.80
2024-03-02T00:26:20.593Z,7.33
2024-03-02T00:28:47.551Z,7.87
2024-03-02T00:31:15.395Z,7.33
2024-03-02T00:33:49.531Z,7.87
2024-03-02T00:36:22.673Z,7.43
2024-03-02T00:38:54.908Z,7.43
2024-03-02T00:41:34.364Z,7.60
2024-03-02T00:44:06.935Z,7.97
2024-03-02T00:46:35.151Z,7.63
2024-03-02T00:49:06.887Z,7.23
2024-03-02T00:51:36.044Z,7.27
2024-03-02T00:54:07.501Z,7.53
2024-03-02T00:56:36.357Z,8.23
2024-03-02T00:59:03.648Z,7.10
2024-03-02T01:01:30.598Z,7.20
2024-03-02T01:03:57.804Z,7.00
2024-03-02T01:06:24.885Z,6.50
2024-03-02T01:08:52.890Z,6.87
2024-03-02T01:11:24.002Z,6.57
2024-03-02T01:13:51.864Z,7.20
2024-03-02T01:16:18.775Z,6.87
2024-03-02T01:18:46.662Z,6.80
2024-03-02T01:21:13.562Z,6.93
2024-03-02T01:23:40.446Z,6.50
2024-03-02T01:26:07.904Z,6.80
2024-03-02T01:28:34.773Z,7.17
2024-03-02T01:31:03.217Z,6.77
2024-03-02T01:33:30.485Z,6.93
2024-03-02T01:35:57.383Z,6.87
2024-03-02T01:38:24.209Z,6.33
2024-03-02T01:40:51.338Z,6.67
2024-03-02T01:43:18.169Z,6.33
2024-03-02T01:45:45.155Z,6.30
2024-03-02T01:48:12.331Z,6.83
2024-03-02T01:50:39.321Z,6.63
2024-03-02T01:53:06.342Z,7.10
2024-03-02T01:55:34.440Z,7.20
2024-03-02T01:58:02.097Z,7.17
2024-03-02T02:00:29.465Z,7.23
2024-03-02T02:02:56.576Z,6.70
2024-03-02T02:05:23.788Z,6.83
2024-03-02T02:07:51.028Z,6.23
2024-03-02T02:10:18.245Z,6.20
2024-03-02T02:12:45.188Z,6.50
2024-03-02T02:15:29.042Z,6.20
2024-03-02T02:17:56.962Z,6.40
2024-03-02T02:20:24.537Z,6.57
2024-03-02T02:22:56.769Z,6.17
2024-03-02T02:25:23.622Z,6.47
2024-03-02T02:27:50.793Z,6.20
2024-03-02T02:30:26.146Z,6.10
2024-03-02T02:32:53.489Z,6.10
2024-03-02T02:35:20.431Z,6.27
2024-03-02T02:37:48.352Z,5.97
2024-03-02T02:40:15.466Z,6.33
2024-03-02T02:42:42.324Z,5.87
2024-03-02T02:45:09.661Z,6.33
2024-03-02T02:47:36.568Z,5.90
2024-03-02T02:50:09.155Z,6.70
2024-03-02T02:52:37.903Z,5.83
2024-03-02T02:55:05.616Z,6.23
2024-03-02T02:57:37.727Z,6.53
2024-03-02T03:00:11.131Z,6.67
2024-03-02T03:02:39.744Z,6.63
2024-03-02T03:05:07.695Z,6.90
2024-03-02T03:07:38.045Z,6.63
2024-03-02T03:10:05.885Z,6.57
2024-03-02T03:12:32.767Z,6.77
2024-03-02T03:15:00.797Z,6.53
2024-03-02T03:17:28.627Z,6.90
2024-03-02T03:19:56.145Z,7.17
2024-03-02T03:22:23.171Z,6.83
2024-03-02T03:24:50.290Z,7.10
2024-03-02T03:27:17.065Z,6.83
2024-03-02T03:29:43.936Z,7.50
2024-03-02T03:32:10.983Z,7.67
2024-03-02T03:34:37.930Z,7.57
2024-03-02T03:37:05.054Z,7.73
2024-03-02T03:39:32.024Z,7.80
2024-03-02T03:41:58.891Z,8.20
2024-03-02T03:44:25.664Z,8.60
2024-03-02T03:46:52.708Z,7.80
2024-03-02T03:49:19.607Z,8.60
2024-03-02T03:51:46.435Z,8.07
2024-03-02T03:54:13.534Z,8.73
2024-03-02T03:56:40.275Z,9.27
2024-03-02T03:59:07.026Z,8.93
2024-03-02T04:01:35.084Z,9.17
2024-03-02T04:04:04.661Z,8.93
2024-03-02T04:06:31.770Z,8.63
2024-03-02T04:08:58.727Z,9.27
2024-03-02T04:11:25.687Z,9.63
2024-03-02T04:13:53.311Z,9.20
2024-03-02T04:16:21.172Z,9.43
2024-03-02T04:18:48.037Z,9.60
2024-03-02T04:21:14.915Z,9.97
2024-03-02T04:23:42.060Z,9.97
2024-03-02T04:26:08.873Z,10.40
2024-03-02T04:28:35.734Z,9.30
2024-03-02T04:31:02.758Z,9.30
2024-03-02T04:33:29.707Z,9.83
2024-03-02T04:35:56.591Z,9.87
2024-03-02T04:38:24.091Z,9.90
2024-03-02T04:40:51.022Z,9.67
2024-03-02T04:43:17.887Z,9.60
2024-03-02T04:45:45.116Z,9.83
2024-03-02T04:48:12.419Z,10.00
2024-03-02T04:50:39.241Z,9.27
2024-03-02T04:53:06.247Z,9.70
2024-03-02T04:55:35.689Z,9.33
2024-03-02T04:58:02.675Z,9.37
2024-03-02T05:00:29.729Z,9.83
2024-03-02T05:02:56.664Z,9.73
2024-03-02T05:05:23.702Z,10.23
2024-03-02T05:07:50.836Z,10.20
2024-03-02T05:10:17.757Z,10.40
2024-03-02T05:12:44.743Z,10.43
2024-03-02T05:15:14.029Z,10.87
2024-03-02T05:17:43.704Z,10.50
2024-03-02T05:20:10.948Z,11.03
2024-03-02T05:22:38.876Z,11.23
2024-03-02T05:25:07.709Z,9.97
2024-03-02T05:27:34.857Z,10.97
2024-03-02T05:30:01.978Z,11.60
2024-03-02T05:32:29.151Z,10.47
2024-03-02T05:34:56.227Z,11.27
2024-03-02T05:37:23.302Z,11.57
2024-03-02T05:39:50.573Z,10.77
2024-03-02T05:42:20.680Z,10.87
2024-03-02T05:44:47.793Z,10.23
2024-03-02T05:47:14.949Z,11.20
2024-03-02T05:49:41.908Z,10.90
2024-03-02T05:52:08.709Z,10.43
2024-03-02T05:54:35.535Z,11.10
2024-03-02T05:57:18.469Z,10.87
2024-03-02T05:59:45.653Z,10.00
2024-03-02T06:02:12.541Z,10.30
2024-03-02T06:04:39.619Z,10.17
2024-03-02T06:07:06.699Z,10.93
2024-03-02T06:09:33.626Z,10.27
2024-03-02T06:12:00.767Z,11.53
2024-03-02T06:14:27.598Z,10.10
2024-03-02T06:16:54.346Z,10.80
2024-03-02T06:19:21.620Z,11.20
2024-03-02T06:21:48.512Z,10.93
2024-03-02T06:24:15.379Z,11.07
2024-03-02T06:26:42.736Z,11.73
2024-03-02T06:29:09.503Z,9.93
2024-03-02T06:31:36.387Z,11.20
2024-03-02T06:34:05.029Z,10.83
2024-03-02T06:36:32.268Z,11.43
2024-03-02T06:38:59.023Z,11.33
2024-03-02T06:41:25.990Z,10.77
2024-03-02T06:44:00.312Z,11.00
2024-03-02T06:46:27.694Z,10.17
2024-03-02T06:48:54.593Z,11.03
2024-03-02T06:51:21.593Z,10.13
2024-03-02T06:53:48.740Z,9.90
2024-03-02T06:56:15.538Z,10.37
2024-03-02T06:58:43.996Z,10.67
2024-03-02T07:01:11.339Z,10.50
2024-03-02T07:03:38.350Z,10.23
2024-03-02T07:06:05.778Z,10.53
2024-03-02T07:08:35.550Z,10.70
2024-03-02T07:11:02.430Z,10.83
2024-03-02T07:13:29.408Z,10.17
2024-03-02T07:16:05.276Z,11.27
2024-03-02T07:18:32.294Z,11.27
2024-03-02T07:21:00.565Z,10.60
2024-03-02T07:23:28.731Z,11.00
2024-03-02T07:28:28.362Z,10.87
2024-03-02T07:31:02.648Z,11.83
2024-03-02T07:33:29.933Z,10.33
2024-03-02T07:35:57.167Z,10.47
2024-03-02T07:38:24.587Z,10.93
2024-03-02T07:40:54.491Z,10.10
2024-03-02T07:43:21.420Z,10.53
2024-03-02T07:45:49.337Z,11.50
2024-03-02T07:48:16.505Z,10.00
2024-03-02T07:50:44.221Z,10.73
2024-03-02T07:53:11.312Z,10.67
2024-03-02T07:55:38.184Z,11.23
2024-03-02T07:58:05.170Z,10.43
2024-03-02T08:00:35.095Z,10.80
2024-03-02T08:03:02.437Z,10.30
2024-03-02T08:05:29.308Z,10.43
2024-03-02T08:07:56.562Z,11.50
2024-03-02T08:10:23.320Z,9.70
2024-03-02T08:12:50.199Z,9.47
2024-03-02T08:15:17.400Z,10.23
2024-03-02T08:17:46.495Z,9.67
2024-03-02T08:20:13.675Z,9.10
2024-03-02T08:22:41.692Z,8.47
2024-03-02T08:25:09.568Z,10.20
2024-03-02T08:27:37.446Z,9.07
2024-03-02T08:30:08.291Z,8.63
2024-03-02T08:32:35.839Z,9.17
2024-03-02T08:35:02.905Z,8.70
2024-03-02T08:37:30.126Z,7.57
2024-03-02T08:39:57.077Z,7.87
2024-03-02T08:42:24.164Z,7.77
2024-03-02T08:44:51.524Z,7.43
2024-03-02T08:47:18.611Z,7.57
2024-03-02T08:49:45.461Z,7.07
2024-03-02T08:52:12.537Z,6.77
2024-03-02T08:54:39.659Z,5.80
2024-03-02T08:57:07.198Z,6.50
2024-03-02T08:59:34.727Z,6.77
2024-03-02T09:02:01.672Z,6.60
2024-03-02T09:04:31.691Z,6.70
2024-03-02T09:07:00.987Z,6.60
2024-03-02T09:09:27.990Z,6.87
2024-03-02T09:11:56.264Z,6.77
2024-03-02T09:14:23.547Z,6.13
2024-03-02T09:16:50.317Z,6.63
2024-03-02T09:19:17.670Z,6.17
2024-03-02T09:21:45.395Z,5.43
2024-03-02T09:24:14.225Z,5.93
2024-03-02T09:26:42.248Z,5.77
2024-03-02T09:29:09.197Z,4.67
2024-03-02T09:31:41.978Z,4.70
2024-03-02T09:34:09.140Z,4.00
2024-03-02T09:36:35.971Z,4.27
2024-03-02T09:39:05.051Z,3.90
2024-03-02T09:41:34.224Z,3.80
2024-03-02T09:44:01.733Z,4.60
2024-03-02T09:46:28.745Z,4.13
2024-03-02T09:48:55.972Z,3.77
2024-03-02T09:51:23.468Z,4.13
2024-03-02T09:53:51.077Z,4.40
2024-03-02T09:56:19.445Z,4.93
2024-03-02T09:58:46.472Z,5.80
2024-03-02T10:01:13.517Z,5.20
2024-03-02T10:03:43.016Z,5.60
2024-03-02T10:06:25.979Z,5.80
2024-03-02T10:08:53.888Z,6.40
2024-03-02T10:11:32.321Z,6.07
2024-03-02T10:14:09.400Z,5.60
2024-03-02T10:16:40.710Z,5.73
2024-03-02T10:19:19.096Z,7.10
2024-03-02T10:21:56.022Z,5.73
2024-03-02T10:24:24.087Z,5.07
2024-03-02T10:26:51.686Z,5.20
2024-03-02T10:29:19.131Z,6.50
2024-03-02T10:31:47.876Z,5.73
2024-03-02T10:34:15.429Z,4.60
2024-03-02T10:36:44.013Z,7.23
2024-03-02T10:39:11.215Z,5.27
2024-03-02T10:41:39.259Z,5.60
2024-03-02T10:44:07.998Z,11.47
2024-03-02T10:46:36.663Z,5.10
2024-03-02T10:49:08.067Z,5.07
2024-03-02T10:51:38.160Z,4.77
2024-03-02T10:54:06.015Z,5.70
2024-03-02T10:56:47.991Z,4.60
2024-03-02T10:59:34.051Z,4.70
2024-03-02T11:02:05.655Z,4.50
2024-03-02T11:04:35.924Z,4.03
2024-03-02T11:07:13.536Z,4.47
2024-03-02T11:09:43.064Z,3.50
2024-03-02T11:12:30.047Z,3.30
2024-03-02T11:14:57.705Z,3.20
2024-03-02T11:17:25.237Z,3.20
2024-03-02T11:19:52.763Z,4.50
2024-03-02T11:22:20.456Z,4.53
2024-03-02T11:24:52.458Z,4.23
2024-03-02T11:27:47.719Z,4.37
2024-03-02T11:30:33.262Z,4.20
2024-03-02T11:33:00.868Z,4.10
2024-03-02T11:35:31.577Z,3.83
2024-03-02T11:38:00.243Z,4.03
2024-03-02T11:40:27.138Z,4.30
2024-03-02T11:42:54.424Z,5.17
2024-03-02T11:45:44.430Z,4.77
2024-03-02T11:48:14.980Z,4.60
2024-03-02T11:50:47.649Z,3.93
2024-03-02T11:53:14.988Z,4.13
2024-03-02T11:55:42.092Z,4.40
2024-03-02T11:58:09.175Z,4.20
2024-03-02T12:00:36.582Z,4.33
2024-03-02T12:03:06.359Z,4.57
2024-03-02T12:05:33.857Z,4.57
2024-03-02T12:08:02.157Z,4.00
2024-03-02T12:10:29.329Z,5.13
2024-03-02T12:12:59.532Z,4.83
2024-03-02T12:15:34.380Z,4.60
2024-03-02T12:18:02.838Z,4.60
2024-03-02T12:20:32.860Z,4.37
2024-03-02T12:23:01.226Z,4.57
2024-03-02T12:25:29.313Z,4.90
2024-03-02T12:27:57.644Z,4.13
2024-03-02T12:30:25.080Z,3.77
2024-03-02T12:32:52.250Z,4.27
2024-03-02T12:35:19.991Z,4.20
2024-03-02T12:37:51.389Z,4.13
2024-03-02T12:40:20.266Z,3.93
2024-03-02T12:42:47.929Z,4.10
2024-03-02T12:45:15.304Z,4.10
2024-03-02T12:47:44.052Z,3.70
2024-03-02T12:50:11.514Z,3.10
2024-03-02T12:52:38.634Z,3.60
2024-03-02T12:55:08.781Z,3.50
2024-03-02T12:57:35.810Z,3.70
2024-03-02T13:03:02.922Z,3.77
2024-03-02T13:05:33.723Z,3.83
2024-03-02T13:08:01.763Z,3.10
2024-03-02T13:10:28.931Z,2.87
2024-03-02T13:12:57.302Z,2.97
2024-03-02T13:15:24.328Z,2.33
2024-03-02T13:17:52.095Z,2.50
2024-03-02T13:20:20.746Z,2.93
2024-03-02T13:22:48.212Z,2.90
2024-03-02T13:25:15.968Z,2.90
2024-03-02T13:27:43.075Z,2.50
2024-03-02T13:30:10.583Z,2.70
2024-03-02T13:32:38.011Z,2.77
2024-03-02T13:35:05.395Z,3.63
2024-03-02T13:37:33.852Z,2.90
2024-03-02T13:40:01.018Z,3.33
2024-03-02T13:42:28.704Z,3.00
2024-03-02T13:44:55.853Z,3.07
2024-03-02T13:47:22.835Z,2.93
2024-03-02T13:49:50.265Z,3.47
2024-03-02T13:52:21.504Z,3.03
2024-03-02T13:54:49.226Z,2.77
2024-03-02T13:57:16.366Z,2.60
2024-03-02T13:59:44.748Z,2.63
2024-03-02T14:02:13.800Z,2.80
2024-03-02T14:04:41.186Z,2.63
2024-03-02T14:07:08.682Z,2.43
2024-03-02T14:09:36.303Z,2.63
2024-03-02T14:12:04.331Z,2.57
2024-03-02T14:14:31.187Z,3.53
2024-03-02T14:17:01.848Z,3.17
2024-03-02T14:19:28.738Z,3.00
2024-03-02T14:21:55.561Z,2.30
2024-03-02T14:24:25.396Z,2.30
2024-03-02T14:26:54.868Z,2.40
2024-03-02T14:29:23.301Z,2.27
2024-03-02T14:31:50.352Z,2.53
2024-03-02T14:34:17.375Z,2.50
2024-03-02T14:36:45.249Z,2.20
2024-03-02T14:39:12.800Z,2.37
2024-03-02T14:41:40.398Z,2.50
2024-03-02T14:44:07.521Z,2.20
2024-03-02T14:46:35.034Z,2.53
2024-03-02T14:49:02.014Z,2.40
2024-03-02T14:51:31.208Z,1.97
2024-03-02T14:53:58.316Z,2.13
2024-03-02T14:56:25.126Z,2.03
2024-03-02T14:58:52.186Z,2.10
2024-03-02T15:01:19.392Z,2.20
2024-03-02T15:03:46.645Z,2.20
2024-03-02T15:06:13.606Z,1.90
2024-03-02T15:08:42.601Z,1.70
2024-03-02T15:11:10.296Z,1.70
2024-03-02T15:13:37.830Z,1.70
2024-03-02T15:16:05.254Z,1.80
2024-03-02T15:18:32.168Z,1.87
2024-03-02T15:20:58.955Z,2.20
2024-03-02T15:23:25.950Z,2.03
2024-03-02T15:25:52.962Z,1.57
2024-03-02T15:28:19.821Z,1.70
2024-03-02T15:30:47.174Z,1.80
2024-03-02T15:33:14.141Z,2.00
2024-03-02T15:35:41.388Z,1.40
2024-03-02T15:38:18.214Z,1.80
2024-03-02T15:40:51.735Z,1.63
2024-03-02T15:43:18.752Z,1.30
2024-03-02T15:45:45.522Z,1.50
2024-03-02T15:48:12.632Z,2.20
2024-03-02T15:50:39.737Z,1.77
2024-03-02T15:53:07.641Z,1.80
2024-03-02T15:55:37.231Z,1.70
2024-03-02T15:58:06.772Z,1.70
2024-03-02T16:00:33.817Z,1.70
2024-03-02T16:03:00.654Z,1.70
2024-03-02T16:05:27.659Z,2.10
2024-03-02T16:07:54.434Z,2.23
2024-03-02T16:10:21.438Z,2.30
2024-03-02T16:12:48.416Z,2.73
2024-03-02T16:15:15.578Z,2.50
2024-03-02T16:17:42.604Z,2.57
2024-03-02T16:20:11.347Z,2.77
2024-03-02T16:22:38.265Z,2.90
2024-03-02T16:25:06.063Z,2.40
2024-03-02T16:27:33.526Z,2.93
2024-03-02T16:30:00.817Z,2.97
2024-03-02T16:32:27.576Z,3.20
2024-03-02T16:34:54.942Z,3.00
2024-03-02T16:37:21.885Z,2.73
2024-03-02T16:39:49.706Z,3.00
2024-03-02T16:42:16.757Z,2.43
2024-03-02T16:44:43.923Z,3.60
2024-03-02T16:47:13.080Z,3.10
2024-03-02T16:49:40.911Z,2.60
2024-03-02T16:52:07.695Z,3.00
2024-03-02T16:54:34.502Z,2.90
2024-03-02T16:57:01.542Z,3.23
2024-03-02T16:59:28.423Z,3.00
2024-03-02T17:01:55.438Z,2.80
2024-03-02T17:04:25.050Z,3.27
2024-03-02T17:06:52.160Z,2.90
2024-03-02T17:09:19.060Z,2.73
2024-03-02T17:11:46.039Z,3.40
2024-03-02T17:14:12.928Z,2.90
2024-03-02T17:16:40.061Z,2.67
2024-03-02T17:19:07.196Z,2.87
2024-03-02T17:21:34.195Z,2.60
2024-03-02T17:24:03.612Z,2.60
2024-03-02T17:26:31.148Z,2.60
2024-03-02T17:28:58.006Z,2.80
2024-03-02T17:31:24.904Z,3.47
2024-03-02T17:33:52.044Z,3.20
2024-03-02T17:36:18.844Z,3.40
2024-03-02T17:38:45.654Z,3.27
2024-03-02T17:41:12.654Z,2.93
2024-03-02T17:43:40.340Z,2.93
2024-03-02T17:46:07.447Z,2.93
2024-03-02T17:48:34.697Z,2.80
2024-03-02T17:51:01.488Z,3.20
2024-03-02T17:53:28.320Z,3.80
2024-03-02T17:55:55.474Z,3.20
2024-03-02T17:58:22.338Z,2.83
2024-03-02T18:00:49.284Z,3.00
2024-03-02T18:03:16.245Z,2.60
2024-03-02T18:05:43.154Z,2.83
2024-03-02T18:08:10.070Z,3.17
2024-03-02T18:10:37.172Z,2.80
2024-03-02T18:13:04.495Z,3.30
2024-03-02T18:15:31.440Z,3.40
2024-03-02T18:17:58.509Z,3.10
2024-03-02T18:20:25.312Z,3.37
2024-03-02T18:22:52.288Z,3.77
2024-03-02T18:25:19.320Z,3.07
2024-03-02T18:27:46.461Z,3.53
2024-03-02T18:30:13.647Z,3.10
2024-03-02T18:32:40.777Z,3.43
2024-03-02T18:35:09.554Z,3.73
2024-03-02T18:37:39.487Z,3.67
2024-03-02T18:40:07.118Z,3.07
2024-03-02T18:42:34.437Z,3.30
2024-03-02T18:45:06.077Z,4.07
2024-03-02T18:47:33.454Z,3.93
2024-03-02T18:50:02.110Z,4.47
2024-03-02T18:52:28.958Z,4.73
2024-03-02T18:54:55.995Z,4.37
2024-03-02T18:57:22.802Z,5.20
2024-03-02T18:59:49.631Z,5.33
2024-03-02T19:02:16.582Z,6.10
2024-03-02T19:04:43.339Z,5.77
2024-03-02T19:07:11.643Z,4.70
2024-03-02T19:09:38.786Z,5.17
2024-03-02T19:12:06.277Z,6.50
2024-03-02T19:14:33.493Z,7.17
2024-03-02T19:17:00.616Z,5.80
2024-03-02T19:19:27.579Z,5.40
2024-03-02T19:22:02.253Z,5.07
2024-03-02T19:24:37.607Z,4.83
2024-03-02T19:27:05.768Z,5.33
2024-03-02T19:29:32.950Z,5.50
2024-03-02T19:32:05.158Z,4.70
2024-03-02T19:34:34.976Z,5.00
2024-03-02T19:37:02.146Z,4.67
2024-03-02T19:39:29.307Z,5.23
2024-03-02T19:41:56.523Z,5.10
2024-03-02T19:44:30.905Z,5.40
2024-03-02T19:46:57.879Z,5.50
2024-03-02T19:49:25.546Z,5.67
2024-03-02T19:51:52.708Z,6.13
2024-03-02T19:54:19.646Z,6.77
2024-03-02T19:56:46.685Z,6.10
2024-03-02T19:59:14.276Z,6.37
2024-03-02T20:01:41.579Z,7.30
2024-03-02T20:04:08.684Z,6.53
2024-03-02T20:06:35.842Z,6.50
2024-03-02T20:09:02.672Z,7.53
2024-03-02T20:11:33.156Z,7.10
2024-03-02T20:14:01.004Z,7.53
2024-03-02T20:16:28.052Z,7.27
2024-03-02T20:18:54.976Z,7.47
2024-03-02T20:21:22.087Z,7.70
2024-03-02T20:23:49.386Z,8.47
2024-03-02T20:26:18.840Z,8.37
2024-03-02T20:28:46.726Z,7.43
2024-03-02T20:31:15.365Z,7.40
2024-03-02T20:33:42.602Z,7.67
2024-03-02T20:36:16.655Z,7.90
2024-03-02T20:38:43.628Z,7.40
2024-03-02T20:41:21.017Z,6.97
2024-03-02T20:43:48.010Z,7.77
2024-03-02T20:46:15.876Z,7.90
2024-03-02T20:48:43.384Z,7.67
2024-03-02T20:51:10.426Z,7.40
2024-03-02T20:53:37.252Z,8.20
2024-03-02T20:56:04.864Z,7.77
2024-03-02T20:58:31.895Z,7.70
2024-03-02T21:00:58.931Z,7.83
2024-03-02T21:03:26.352Z,8.20
2024-03-02T21:05:53.238Z,7.77
2024-03-02T21:08:20.284Z,7.57
2024-03-02T21:10:49.836Z,9.53
2024-03-02T21:13:17.633Z,9.27
2024-03-02T21:15:45.000Z,8.80
2024-03-02T21:18:12.350Z,9.40
2024-03-02T21:20:39.259Z,9.80
2024-03-02T21:23:07.598Z,9.60
2024-03-02T21:25:36.889Z,9.40
2024-03-02T21:28:04.308Z,9.60
2024-03-02T21:30:32.013Z,10.27
2024-03-02T21:32:59.274Z,10.10
2024-03-02T21:35:28.239Z,11.30
2024-03-02T21:37:55.495Z,11.57
2024-03-02T21:40:22.796Z,12.30
2024-03-02T21:42:51.940Z,11.37
2024-03-02T21:45:19.162Z,10.57
2024-03-02T21:47:46.704Z,11.33
2024-03-02T21:50:13.592Z,10.97
2024-03-02T21:52:40.559Z,11.57
2024-03-02T21:55:10.097Z,11.03
2024-03-02T21:57:37.965Z,10.70
2024-03-02T22:00:05.579Z,11.80
2024-03-02T22:02:32.857Z,10.90
2024-03-02T22:04:59.777Z,10.47
2024-03-02T22:07:26.758Z,11.33
2024-03-02T22:09:54.317Z,11.07
2024-03-02T22:12:21.268Z,12.07
2024-03-02T22:14:48.255Z,11.50
2024-03-02T22:17:15.476Z,11.30
2024-03-02T22:19:42.715Z,10.93
2024-03-02T22:22:09.845Z,10.53
2024-03-02T22:24:37.096Z,11.70
2024-03-02T22:27:04.118Z,10.67
2024-03-02T22:29:31.070Z,9.90
2024-03-02T22:31:58.137Z,11.40
2024-03-02T22:34:25.055Z,10.87
2024-03-02T22:36:52.066Z,10.13
2024-03-02T22:39:19.020Z,10.60
2024-03-02T22:41:46.280Z,10.37
2024-03-02T22:44:13.157Z,11.30
2024-03-02T22:46:40.185Z,11.47
2024-03-02T22:49:07.088Z,11.30
2024-03-02T22:51:34.055Z,10.73
2024-03-02T22:54:01.125Z,10.97
2024-03-02T22:56:27.869Z,10.80
2024-03-02T22:58:55.289Z,11.00
2024-03-02T23:01:23.699Z,10.50
2024-03-02T23:03:50.779Z,10.90
2024-03-02T23:06:20.780Z,9.70
2024-03-02T23:08:47.654Z,10.37
2024-03-02T23:11:14.580Z,10.50
2024-03-02T23:13:41.764Z,10.87
2024-03-02T23:16:09.834Z,11.57
2024-03-02T23:18:36.846Z,9.53
2024-03-02T23:21:04.226Z,10.57
2024-03-02T23:23:30.970Z,10.03
2024-03-02T23:25:57.897Z,9.90
2024-03-02T23:28:24.988Z,9.27
2024-03-02T23:30:51.893Z,9.93
2024-03-02T23:33:18.893Z,9.87
2024-03-02T23:35:46.297Z,9.70
2024-03-02T23:38:14.115Z,9.53
2024-03-02T23:40:59.649Z,9.90
2024-03-02T23:43:26.411Z,9.77
2024-03-02T23:45:53.770Z,10.80
2024-03-02T23:48:20.794Z,10.13
2024-03-02T23:50:47.555Z,10.30
2024-03-02T23:53:14.435Z,10.53
2024-03-02T23:55:47.749Z,10.17
2024-03-02T23:58:19.291Z,10.40
